createdAt,value
2018-06-29T00:00:14.361Z,100360.22
2018-06-29T00:02:45.349Z,100355.31
2018-06-29T00:05:16.361Z,100361.95
2018-06-29T00:07:48.766Z,100354.88
2018-06-29T00:10:20.576Z,100357.94
2018-06-29T00:12:50.015Z,100349.69
2018-06-29T00:15:22.427Z,100352.34
2018-06-29T00:17:51.857Z,100347.30
2018-06-29T00:20:21.344Z,100345.84
2018-06-29T00:22:50.784Z,100347.73
2018-06-29T00:25:23.172Z,100346.98
2018-06-29T00:27:52.614Z,100343.32
2018-06-29T00:30:24.418Z,100338.37
2018-06-29T00:32:56.856Z,100338.19
2018-06-29T00:35:26.321Z,100337.52
2018-06-29T00:37:58.725Z,100338.39
2018-06-29T00:40:28.929Z,100339.80
2018-06-29T00:43:01.351Z,100338.87
2018-06-29T00:45:33.805Z,100336.09
2018-06-29T00:48:04.848Z,100336.89
2018-06-29T00:50:35.072Z,100333.47
2018-06-29T00:53:04.537Z,100334.38
2018-06-29T00:55:36.972Z,100335.84
2018-06-29T00:58:06.450Z,100338.27
2018-06-29T01:00:38.868Z,100334.66
2018-06-29T01:03:08.372Z,100337.22
2018-06-29T01:05:38.613Z,100342.03
2018-06-29T01:08:11.078Z,100337.14
2018-06-29T01:10:40.521Z,100341.48
2018-06-29T01:13:12.950Z,100338.37
2018-06-29T01:15:42.431Z,100333.69
2018-06-29T01:18:14.204Z,100330.12
2018-06-29T01:20:46.620Z,100328.63
2018-06-29T01:23:19.010Z,100322.56
2018-06-29T01:25:50.848Z,100325.48
2018-06-29T01:28:23.312Z,100330.17
2018-06-29T01:30:52.755Z,100329.45
2018-06-29T01:33:25.196Z,100327.78
2018-06-29T01:35:54.629Z,100316.52
2018-06-29T01:38:24.942Z,100316.69
2018-06-29T01:40:54.501Z,100308.38
2018-06-29T01:43:24.763Z,100310.42
2018-06-29T01:45:54.189Z,100311.75
2018-06-29T01:48:22.903Z,100314.08
2018-06-29T01:50:52.349Z,100314.20
2018-06-29T01:53:24.749Z,100311.16
2018-06-29T01:55:54.982Z,100304.02
2018-06-29T01:58:24.437Z,100304.13
2018-06-29T02:00:53.893Z,100305.11
2018-06-29T02:03:26.273Z,100307.05
2018-06-29T02:05:58.657Z,100310.88
2018-06-29T02:08:28.289Z,100309.65
2018-06-29T02:11:00.683Z,100314.52
2018-06-29T02:13:30.953Z,100316.74
2018-06-29T02:16:02.856Z,100317.20
2018-06-29T02:18:32.304Z,100313.80
2018-06-29T02:21:02.550Z,100316.99
2018-06-29T02:23:31.979Z,100319.50
2018-06-29T02:26:02.981Z,100315.13
2018-06-29T02:28:35.488Z,100316.09
2018-06-29T02:31:05.720Z,100313.93
2018-06-29T02:33:35.953Z,100315.08
2018-06-29T02:36:05.458Z,100308.86
2018-06-29T02:38:37.826Z,100312.88
2018-06-29T02:41:07.300Z,100311.35
2018-06-29T02:43:36.754Z,100316.02
2018-06-29T02:46:06.229Z,100307.14
2018-06-29T02:48:35.697Z,100309.66
2018-06-29T02:51:05.133Z,100307.67
2018-06-29T02:53:37.514Z,100314.77
2018-06-29T02:56:07.054Z,100312.31
2018-06-29T02:58:39.445Z,100313.22
2018-06-29T03:01:12.141Z,100308.00
2018-06-29T03:03:41.639Z,100312.91
2018-06-29T03:06:14.096Z,100310.00
2018-06-29T03:08:43.571Z,100306.97
2018-06-29T03:11:13.025Z,100307.14
2018-06-29T03:13:43.260Z,100308.09
2018-06-29T03:16:15.221Z,100305.59
2018-06-29T03:18:46.213Z,100307.66
2018-06-29T03:21:15.669Z,100307.87
2018-06-29T03:23:48.064Z,100304.63
2018-06-29T03:26:19.192Z,100304.20
2018-06-29T03:28:51.964Z,100302.95
2018-06-29T03:31:24.432Z,100305.19
2018-06-29T03:33:55.479Z,100305.92
2018-06-29T03:36:26.476Z,100311.95
2018-06-29T03:38:55.936Z,100310.05
2018-06-29T03:41:25.431Z,100307.20
2018-06-29T03:43:54.869Z,100306.67
2018-06-29T03:46:24.373Z,100306.12
2018-06-29T03:48:53.881Z,100303.81
2018-06-29T03:51:38.476Z,100301.64
2018-06-29T03:54:07.908Z,100301.73
2018-06-29T03:56:40.331Z,100293.38
2018-06-29T03:59:12.715Z,100295.48
2018-06-29T04:01:42.164Z,100292.11
2018-06-29T04:04:14.612Z,100296.08
2018-06-29T04:06:44.038Z,100298.03
2018-06-29T04:09:16.460Z,100297.92
2018-06-29T04:11:48.872Z,100296.22
2018-06-29T04:14:18.404Z,100297.87
2018-06-29T04:16:50.913Z,100302.27
2018-06-29T04:19:21.494Z,100305.97
2018-06-29T04:21:50.943Z,100301.59
2018-06-29T04:24:22.215Z,100296.94
2018-06-29T04:26:53.972Z,100299.00
2018-06-29T04:29:26.477Z,100299.21
2018-06-29T04:31:55.932Z,100302.55
2018-06-29T04:34:28.352Z,100301.19
2018-06-29T04:36:57.827Z,100296.00
2018-06-29T04:39:30.211Z,100293.39
2018-06-29T04:42:02.673Z,100285.98
2018-06-29T04:44:32.192Z,100284.25
2018-06-29T04:47:02.570Z,100284.37
2018-06-29T04:49:32.019Z,100289.75
2018-06-29T04:52:02.370Z,100290.50
2018-06-29T04:54:31.809Z,100289.42
2018-06-29T04:57:04.226Z,100290.16
2018-06-29T04:59:33.688Z,100295.89
2018-06-29T05:02:06.145Z,100297.67
2018-06-29T05:04:38.557Z,100299.38
2018-06-29T05:07:10.940Z,100298.84
2018-06-29T05:09:42.752Z,100302.34
2018-06-29T05:12:12.198Z,100302.33
2018-06-29T05:14:41.867Z,100301.55
2018-06-29T05:17:12.103Z,100297.35
2018-06-29T05:19:42.332Z,100297.23
2018-06-29T05:22:14.125Z,100295.91
2018-06-29T05:24:43.580Z,100294.07
2018-06-29T05:27:13.854Z,100291.86
2018-06-29T05:29:43.329Z,100301.08
2018-06-29T05:32:12.817Z,100303.55
2018-06-29T05:34:43.034Z,100310.98
2018-06-29T05:37:14.856Z,100303.02
2018-06-29T05:39:44.329Z,100304.02
2018-06-29T05:42:16.731Z,100298.95
2018-06-29T05:44:49.141Z,100301.14
2018-06-29T05:47:19.428Z,100301.57
2018-06-29T05:49:51.796Z,100304.13
2018-06-29T05:52:22.051Z,100305.68
2018-06-29T05:54:53.048Z,100311.66
2018-06-29T05:57:22.565Z,100310.83
2018-06-29T05:59:54.286Z,100314.70
2018-06-29T06:02:26.989Z,100309.81
2018-06-29T06:04:56.448Z,100311.30
2018-06-29T06:07:29.018Z,100312.95
2018-06-29T06:09:58.470Z,100306.14
2018-06-29T06:12:30.904Z,100306.98
2018-06-29T06:15:02.702Z,100306.39
2018-06-29T06:17:32.913Z,100310.53
2018-06-29T06:20:07.420Z,100310.11
2018-06-29T06:22:39.792Z,100312.38
2018-06-29T06:25:10.041Z,100318.98
2018-06-29T06:27:41.033Z,100316.27
2018-06-29T06:30:10.513Z,100318.06
2018-06-29T06:32:42.924Z,100320.51
2018-06-29T06:35:15.345Z,100322.52
2018-06-29T06:37:47.787Z,100321.73
2018-06-29T06:40:20.184Z,100325.16
2018-06-29T06:42:52.560Z,100330.24
2018-06-29T06:45:22.872Z,100333.47
2018-06-29T06:47:53.841Z,100336.81
2018-06-29T06:50:23.346Z,100333.94
2018-06-29T06:52:53.829Z,100336.83
2018-06-29T06:55:24.040Z,100345.72
2018-06-29T06:57:56.462Z,100344.72
2018-06-29T07:00:28.636Z,100338.94
2018-06-29T07:02:58.989Z,100339.63
2018-06-29T07:05:29.974Z,100336.64
2018-06-29T07:07:59.420Z,100331.98
2018-06-29T07:10:28.903Z,100334.85
2018-06-29T07:12:59.919Z,100333.70
2018-06-29T07:15:30.969Z,100336.82
2018-06-29T07:18:00.434Z,100327.34
2018-06-29T07:20:29.909Z,100330.38
2018-06-29T07:23:00.150Z,100324.13
2018-06-29T07:25:30.650Z,100324.98
2018-06-29T07:28:00.872Z,100326.13
2018-06-29T07:30:31.872Z,100320.98
2018-06-29T07:33:02.167Z,100318.04
2018-06-29T07:35:31.688Z,100319.53
2018-06-29T07:38:02.130Z,100318.91
2018-06-29T07:40:31.585Z,100309.26
2018-06-29T07:43:03.996Z,100306.45
2018-06-29T07:45:34.224Z,100305.48
2018-06-29T07:48:06.014Z,100302.85
2018-06-29T07:50:37.352Z,100306.54
2018-06-29T07:53:06.786Z,100301.74
2018-06-29T07:55:39.624Z,100309.52
2018-06-29T07:58:09.811Z,100303.98
2018-06-29T08:00:42.236Z,100308.05
2018-06-29T08:03:11.659Z,100308.42
2018-06-29T08:05:44.124Z,100311.31
2018-06-29T08:08:14.226Z,100307.31
2018-06-29T08:10:44.533Z,100309.45
2018-06-29T08:13:19.086Z,100307.23
2018-06-29T08:15:48.527Z,100307.16
2018-06-29T08:18:19.532Z,100303.25
2018-06-29T08:20:49.045Z,100297.66
2018-06-29T08:23:18.491Z,100299.44
2018-06-29T08:25:47.941Z,100301.16
2018-06-29T08:28:18.200Z,100291.51
2018-06-29T08:30:47.628Z,100285.29
2018-06-29T08:33:18.177Z,100282.13
2018-06-29T08:35:47.711Z,100280.30
2018-06-29T08:38:17.271Z,100274.63
2018-06-29T08:40:47.543Z,100278.19
2018-06-29T08:43:19.977Z,100275.23
2018-06-29T08:45:52.367Z,100274.16
2018-06-29T08:48:25.439Z,100270.83
2018-06-29T08:50:56.416Z,100275.73
2018-06-29T08:53:25.913Z,100274.44
2018-06-29T08:55:58.311Z,100274.45
2018-06-29T08:58:27.765Z,100272.31
2018-06-29T09:00:58.780Z,100265.52
2018-06-29T09:03:29.836Z,100256.98
2018-06-29T09:05:59.282Z,100265.16
2018-06-29T09:08:28.780Z,100265.19
2018-06-29T09:10:58.308Z,100263.46
2018-06-29T09:13:30.648Z,100265.95
2018-06-29T09:16:00.124Z,100272.34
2018-06-29T09:18:29.568Z,100270.34
2018-06-29T09:20:59.012Z,100270.18
2018-06-29T09:23:31.476Z,100271.58
2018-06-29T09:26:00.928Z,100271.00
2018-06-29T09:28:30.388Z,100259.25
2018-06-29T09:30:59.838Z,100266.59
2018-06-29T09:33:29.288Z,100263.19
2018-06-29T09:35:58.749Z,100267.97
2018-06-29T09:38:28.237Z,100267.14
2018-06-29T09:40:57.685Z,100267.45
2018-06-29T09:43:27.713Z,100258.41
2018-06-29T09:45:57.801Z,100260.66
2018-06-29T09:48:28.045Z,100257.48
2018-06-29T09:50:58.241Z,100253.53
2018-06-29T09:53:29.880Z,100259.01
2018-06-29T09:56:00.211Z,100254.44
2018-06-29T09:58:32.684Z,100254.09
2018-06-29T10:01:04.770Z,100253.59
2018-06-29T10:03:35.801Z,100252.06
2018-06-29T10:06:08.248Z,100253.14
2018-06-29T10:08:39.000Z,100243.66
2018-06-29T10:11:08.517Z,100237.55
2018-06-29T10:13:41.509Z,100240.06
2018-06-29T10:16:11.035Z,100246.72
2018-06-29T10:18:40.480Z,100243.33
2018-06-29T10:21:09.929Z,100243.23
2018-06-29T10:23:42.315Z,100232.50
2018-06-29T10:26:14.122Z,100234.30
2018-06-29T10:28:43.589Z,100235.45
2018-06-29T10:31:16.024Z,100235.64
2018-06-29T10:33:45.497Z,100230.63
2018-06-29T10:36:15.781Z,100228.30
2018-06-29T10:38:45.313Z,100229.11
2018-06-29T10:41:14.701Z,100229.22
2018-06-29T10:43:44.161Z,100228.02
2018-06-29T10:46:13.611Z,100230.09
2018-06-29T10:48:44.664Z,100220.94
2018-06-29T10:51:17.043Z,100217.59
2018-06-29T10:53:47.280Z,100215.62
2018-06-29T10:56:18.615Z,100219.27
2018-06-29T10:58:48.094Z,100217.03
2018-06-29T11:01:17.533Z,100212.94
2018-06-29T11:03:47.960Z,100205.91
2018-06-29T11:06:20.444Z,100211.14
2018-06-29T11:08:49.912Z,100199.32
2018-06-29T11:11:19.407Z,100202.34
2018-06-29T11:13:48.833Z,100204.61
2018-06-29T11:16:18.284Z,100202.90
2018-06-29T11:18:48.604Z,100198.99
2018-06-29T11:21:18.074Z,100203.84
2018-06-29T11:23:51.408Z,100203.34
2018-06-29T11:26:20.946Z,100193.88
2018-06-29T11:28:53.332Z,100191.75
2018-06-29T11:31:22.780Z,100189.28
2018-06-29T11:33:55.204Z,100181.47
2018-06-29T11:36:25.421Z,100181.67
2018-06-29T11:38:58.000Z,100182.57
2018-06-29T11:41:30.395Z,100187.41
2018-06-29T11:44:01.487Z,100180.58
2018-06-29T11:46:33.904Z,100168.34
2018-06-29T11:49:06.385Z,100172.42
2018-06-29T11:51:35.829Z,100172.19
2018-06-29T11:54:06.113Z,100168.55
2018-06-29T11:56:35.737Z,100168.21
2018-06-29T11:59:05.987Z,100166.09
2018-06-29T12:01:35.403Z,100162.70
2018-06-29T12:04:04.976Z,100159.21
2018-06-29T12:06:34.476Z,100158.83
2018-06-29T12:09:05.210Z,100154.94
2018-06-29T12:11:34.640Z,100153.68
2018-06-29T12:14:04.864Z,100145.69
2018-06-29T12:16:34.348Z,100142.75
2018-06-29T12:19:05.823Z,100137.20
2018-06-29T12:21:36.261Z,100136.78
2018-06-29T12:24:05.671Z,100135.33
2018-06-29T12:26:35.147Z,100130.47
2018-06-29T12:29:04.768Z,100129.06
2018-06-29T12:31:34.265Z,100121.36
2018-06-29T12:34:04.451Z,100125.16
2018-06-29T12:36:33.933Z,100121.63
2018-06-29T12:39:04.800Z,100117.69
2018-06-29T12:41:34.772Z,100118.31
2018-06-29T12:44:04.700Z,100112.16
2018-06-29T12:46:34.160Z,100107.73
2018-06-29T12:49:05.184Z,100097.72
2018-06-29T12:51:34.659Z,100106.06
2018-06-29T12:54:07.117Z,100102.88
2018-06-29T12:56:39.621Z,100094.98
2018-06-29T12:59:11.405Z,100090.66
2018-06-29T13:01:41.624Z,100089.66
2018-06-29T13:04:11.310Z,100086.22
2018-06-29T13:06:40.596Z,100089.64
2018-06-29T13:09:10.064Z,100094.27
2018-06-29T13:11:39.506Z,100084.20
2018-06-29T13:14:09.003Z,100085.31
2018-06-29T13:16:41.329Z,100079.80
2018-06-29T13:19:10.804Z,100077.40
2018-06-29T13:21:40.260Z,100076.34
2018-06-29T13:24:09.710Z,100080.53
2018-06-29T13:26:40.233Z,100075.81
2018-06-29T13:29:09.697Z,100071.71
2018-06-29T13:31:39.148Z,100074.41
2018-06-29T13:34:08.646Z,100069.70
2018-06-29T13:36:38.132Z,100063.33
2018-06-29T13:39:07.575Z,100059.72
2018-06-29T13:41:37.018Z,100058.31
2018-06-29T13:44:06.522Z,100051.93
2018-06-29T13:46:35.956Z,100055.33
2018-06-29T13:49:05.387Z,100049.41
2018-06-29T13:51:34.824Z,100045.14
2018-06-29T13:54:07.252Z,100043.49
2018-06-29T13:56:36.680Z,100045.45
2018-06-29T13:59:06.224Z,100039.23
2018-06-29T14:01:35.862Z,100033.52
2018-06-29T14:04:06.156Z,100033.78
2018-06-29T14:06:35.683Z,100030.45
2018-06-29T14:09:05.130Z,100035.67
2018-06-29T14:11:35.242Z,100030.03
2018-06-29T14:14:07.709Z,100023.23
2018-06-29T14:16:39.468Z,100018.05
2018-06-29T14:19:09.101Z,100016.64
2018-06-29T14:21:41.529Z,100012.53
2018-06-29T14:24:10.998Z,100012.08
2018-06-29T14:26:43.444Z,100003.05
2018-06-29T14:29:13.675Z,100013.72
2018-06-29T14:31:43.138Z,100013.59
2018-06-29T14:34:12.589Z,100006.56
2018-06-29T14:36:43.580Z,100009.81
2018-06-29T14:39:14.637Z,100001.67
2018-06-29T14:41:44.091Z,100009.66
2018-06-29T14:44:16.478Z,100003.69
2018-06-29T14:46:48.255Z,99999.53
2018-06-29T14:49:19.432Z,100000.90
2018-06-29T14:51:51.844Z,100003.91
2018-06-29T14:54:24.264Z,99995.62
2018-06-29T14:56:55.272Z,99988.72
2018-06-29T14:59:29.871Z,99997.89
2018-06-29T15:02:00.870Z,99988.11
2018-06-29T15:04:30.324Z,99986.98
2018-06-29T15:06:59.796Z,99985.45
2018-06-29T15:09:29.279Z,99992.89
2018-06-29T15:12:00.237Z,99975.34
2018-06-29T15:14:32.696Z,99982.36
2018-06-29T15:17:05.152Z,99970.22
2018-06-29T15:19:37.640Z,99972.52
2018-06-29T15:22:07.856Z,99965.05
2018-06-29T15:24:40.332Z,99963.41
2018-06-29T15:27:10.758Z,99953.05
2018-06-29T15:29:43.177Z,99966.87
2018-06-29T15:32:12.629Z,99956.69
2018-06-29T15:34:42.868Z,99960.38
2018-06-29T15:37:15.245Z,99955.55
2018-06-29T15:39:47.673Z,99954.46
2018-06-29T15:42:20.110Z,99952.84
2018-06-29T15:44:52.759Z,99943.51
2018-06-29T15:47:22.245Z,99944.20
2018-06-29T15:49:51.681Z,99943.09
2018-06-29T15:52:21.920Z,99942.95
2018-06-29T15:54:54.316Z,99941.80
2018-06-29T15:57:24.402Z,99945.89
2018-06-29T15:59:55.422Z,99946.92
2018-06-29T16:02:27.833Z,99939.34
2018-06-29T16:04:58.076Z,99931.89
2018-06-29T16:07:31.932Z,99935.77
2018-06-29T16:10:01.425Z,99933.53
2018-06-29T16:12:33.233Z,99938.00
2018-06-29T16:15:05.658Z,99935.73
2018-06-29T16:17:35.114Z,99932.34
2018-06-29T16:20:07.529Z,99930.94
2018-06-29T16:22:37.854Z,99931.27
2018-06-29T16:25:08.101Z,99926.77
2018-06-29T16:27:40.529Z,99924.40
2018-06-29T16:30:12.970Z,99928.14
2018-06-29T16:32:45.390Z,99930.59
2018-06-29T16:35:17.772Z,99933.37
2018-06-29T16:37:47.358Z,99922.69
2018-06-29T16:40:19.816Z,99925.11
2018-06-29T16:42:49.279Z,99924.93
2018-06-29T16:45:22.678Z,99926.33
2018-06-29T16:47:56.665Z,99924.19
2018-06-29T16:50:29.191Z,99920.95
2018-06-29T16:52:59.619Z,99925.67
2018-06-29T16:55:32.091Z,99923.41
2018-06-29T16:58:02.410Z,99921.08
2018-06-29T17:00:34.991Z,99918.84
2018-06-29T17:03:07.466Z,99920.00
2018-06-29T17:05:37.711Z,99921.12
2018-06-29T17:08:10.162Z,99921.95
2018-06-29T17:10:42.593Z,99925.71
2018-06-29T17:13:12.069Z,99920.88
2018-06-29T17:15:45.057Z,99921.38
2018-06-29T17:18:16.210Z,99925.52
2018-06-29T17:20:48.766Z,99925.22
2018-06-29T17:23:21.190Z,99916.09
2018-06-29T17:25:53.689Z,99915.23
2018-06-29T17:28:26.789Z,99916.73
2018-06-29T17:30:59.381Z,99919.95
2018-06-29T17:33:32.414Z,99916.13
2018-06-29T17:36:01.457Z,99917.87
2018-06-29T17:38:34.844Z,99916.80
2018-06-29T17:41:04.438Z,99919.92
2018-06-29T17:43:36.985Z,99921.49
2018-06-29T17:46:09.540Z,99918.56
2018-06-29T17:48:39.060Z,99920.38
2018-06-29T17:51:11.455Z,99918.97
2018-06-29T17:53:42.540Z,99916.55
2018-06-29T17:56:12.010Z,99914.08
2018-06-29T17:58:47.412Z,99912.52
2018-06-29T18:01:20.812Z,99915.86
2018-06-29T18:03:53.295Z,99917.87
2018-06-29T18:06:25.970Z,99919.14
2018-06-29T18:08:55.565Z,99916.42
2018-06-29T18:11:28.228Z,99914.41
2018-06-29T18:13:58.216Z,99918.41
2018-06-29T18:16:27.778Z,99915.88
2018-06-29T18:18:57.770Z,99912.24
2018-06-29T18:21:27.982Z,99915.28
2018-06-29T18:23:57.485Z,99912.80
2018-06-29T18:26:28.541Z,99913.78
2018-06-29T18:29:01.161Z,99912.11
2018-06-29T18:31:31.667Z,99912.49
2018-06-29T18:34:02.751Z,99909.70
2018-06-29T18:36:35.174Z,99913.44
2018-06-29T18:39:05.310Z,99911.80
2018-06-29T18:41:36.838Z,99910.83
2018-06-29T18:44:07.851Z,99909.84
2018-06-29T18:46:38.109Z,99909.63
2018-06-29T18:49:10.517Z,99911.20
2018-06-29T18:51:39.980Z,99913.61
2018-06-29T18:54:12.440Z,99914.94
2018-06-29T18:56:44.849Z,99911.90
2018-06-29T18:59:17.401Z,99915.11
2018-06-29T19:01:49.905Z,99918.67
2018-06-29T19:04:23.481Z,99915.54
2018-06-29T19:06:53.060Z,99919.52
2018-06-29T19:09:25.480Z,99919.88
2018-06-29T19:11:57.038Z,99917.13
2018-06-29T19:14:27.300Z,99919.53
2018-06-29T19:16:59.843Z,99922.77
2018-06-29T19:19:29.387Z,99922.83
2018-06-29T19:22:01.829Z,99920.42
2018-06-29T19:24:31.648Z,99921.16
2018-06-29T19:27:02.678Z,99922.30
2018-06-29T19:29:35.055Z,99928.95
2018-06-29T19:32:05.430Z,99928.22
2018-06-29T19:34:37.853Z,99929.28
2018-06-29T19:37:09.695Z,99926.71
2018-06-29T19:39:42.084Z,99931.51
2018-06-29T19:42:14.525Z,99930.30
2018-06-29T19:44:45.049Z,99932.05
2018-06-29T19:47:15.496Z,99933.56
2018-06-29T19:49:45.005Z,99935.91
2018-06-29T19:52:15.276Z,99932.41
2018-06-29T19:54:44.840Z,99935.91
2018-06-29T19:57:15.202Z,99936.16
2018-06-29T19:59:47.620Z,99937.77
2018-06-29T20:02:17.861Z,99942.27
2018-06-29T20:04:50.377Z,99945.70
2018-06-29T20:07:19.776Z,99952.92
2018-06-29T20:09:51.571Z,99951.37
2018-06-29T20:12:23.994Z,99952.65
2018-06-29T20:14:53.447Z,99953.15
2018-06-29T20:17:25.878Z,99953.86
2018-06-29T20:19:55.348Z,99953.63
2018-06-29T20:22:27.803Z,99956.34
2018-06-29T20:24:57.372Z,99957.83
2018-06-29T20:27:27.788Z,99966.08
2018-06-29T20:30:00.192Z,99966.57
2018-06-29T20:32:30.449Z,99969.16
2018-06-29T20:35:03.018Z,99967.14
2018-06-29T20:37:32.624Z,99964.71
2018-06-29T20:40:05.050Z,99968.46
2018-06-29T20:42:37.493Z,99970.53
2018-06-29T20:45:10.048Z,99970.36
2018-06-29T20:47:39.492Z,99972.78
2018-06-29T20:50:11.973Z,99974.89
2018-06-29T20:52:41.472Z,99977.05
2018-06-29T20:55:10.932Z,99981.20
2018-06-29T20:57:41.182Z,99985.80
2018-06-29T21:00:14.283Z,99985.78
2018-06-29T21:02:46.814Z,99984.75
2018-06-29T21:05:19.241Z,99982.51
2018-06-29T21:07:51.737Z,99986.96
2018-06-29T21:10:21.227Z,99985.67
2018-06-29T21:12:53.050Z,99986.98
2018-06-29T21:15:25.491Z,99983.23
2018-06-29T21:17:55.214Z,99983.49
2018-06-29T21:20:27.553Z,99983.48
2018-06-29T21:22:57.074Z,99984.91
2018-06-29T21:25:30.279Z,99986.64
2018-06-29T21:28:01.090Z,99984.06
2018-06-29T21:30:31.756Z,99983.33
2018-06-29T21:33:01.487Z,99985.13
2018-06-29T21:35:30.933Z,99982.92
2018-06-29T21:38:00.624Z,99986.41
2018-06-29T21:40:30.105Z,99983.23
2018-06-29T21:43:02.509Z,99982.41
2018-06-29T21:45:31.976Z,99982.06
2018-06-29T21:48:05.023Z,99981.34
2018-06-29T21:50:35.327Z,99977.29
2018-06-29T21:53:05.559Z,99981.00
2018-06-29T21:55:37.945Z,99984.36
2018-06-29T21:58:09.767Z,99982.77
2018-06-29T22:00:41.160Z,99982.01
2018-06-29T22:03:13.576Z,99982.88
2018-06-29T22:05:43.842Z,99982.70
2018-06-29T22:08:16.401Z,99987.50
2018-06-29T22:10:45.843Z,99987.64
2018-06-29T22:13:18.280Z,99992.34
2018-06-29T22:15:47.731Z,99991.74
2018-06-29T22:18:18.190Z,99984.14
2018-06-29T22:20:50.795Z,99987.92
2018-06-29T22:23:20.413Z,99986.53
2018-06-29T22:25:52.819Z,99991.29
2018-06-29T22:28:22.273Z,99989.48
2018-06-29T22:30:54.670Z,99987.41
2018-06-29T22:33:24.294Z,99986.67
2018-06-29T22:35:55.348Z,99985.96
2018-06-29T22:38:27.804Z,99986.70
2018-06-29T22:40:57.313Z,99988.17
2018-06-29T22:43:29.798Z,99986.73
2018-06-29T22:45:59.253Z,99983.37
2018-06-29T22:48:29.617Z,99979.44
2018-06-29T22:50:59.641Z,99980.10
2018-06-29T22:53:30.613Z,99978.64
2018-06-29T22:56:00.069Z,99976.70
2018-06-29T22:58:29.615Z,99977.91
2018-06-29T23:01:02.006Z,99973.03
2018-06-29T23:03:52.472Z,99977.40
2018-06-29T23:06:24.253Z,99977.40
2018-06-29T23:08:56.701Z,99980.41
2018-06-29T23:11:26.949Z,99975.14
2018-06-29T23:13:57.961Z,99974.23
2018-06-29T23:16:30.362Z,99974.68
2018-06-29T23:19:00.596Z,99973.38
2018-06-29T23:21:31.592Z,99966.69
2018-06-29T23:24:01.068Z,99966.04
2018-06-29T23:26:33.519Z,99968.50
2018-06-29T23:29:05.926Z,99970.64
2018-06-29T23:31:35.355Z,99973.22
2018-06-29T23:34:07.753Z,99969.38
2018-06-29T23:36:40.972Z,99972.56
2018-06-29T23:39:12.773Z,99974.83
2018-06-29T23:41:45.180Z,99977.42
2018-06-29T23:44:17.576Z,99976.97
2018-06-29T23:46:50.657Z,99979.56
2018-06-29T23:49:23.041Z,99978.52
2018-06-29T23:51:52.546Z,99974.58
2018-06-29T23:54:22.754Z,99977.56
2018-06-29T23:56:55.196Z,99969.32
2018-06-29T23:59:25.460Z,99965.99
